createdAt,value
2019-04-05T00:03:18.631Z,26.74
2019-04-05T00:08:26.718Z,27.46
2019-04-05T00:13:34.091Z,26.56
2019-04-05T00:18:42.048Z,27.40
2019-04-05T00:23:49.315Z,26.91
2019-04-05T00:28:56.659Z,27.04
2019-04-05T00:34:04.155Z,28.61
2019-04-05T00:39:11.459Z,28.28
2019-04-05T00:44:19.114Z,28.38
2019-04-05T00:49:26.536Z,28.36
2019-04-05T00:54:33.891Z,28.27
2019-04-05T00:59:41.498Z,29.49
2019-04-05T01:04:49.117Z,29.25
2019-04-05T01:09:56.369Z,29.53
2019-04-05T01:15:03.627Z,30.20
2019-04-05T01:20:10.914Z,28.21
2019-04-05T01:25:18.131Z,29.05
2019-04-05T01:30:25.403Z,28.88
2019-04-05T01:35:32.665Z,30.28
2019-04-05T01:40:39.966Z,30.23
2019-04-05T01:45:53.450Z,29.02
2019-04-05T01:50:53.966Z,29.76
2019-04-05T01:56:01.281Z,31.72
2019-04-05T02:01:08.579Z,28.62
2019-04-05T02:06:16.013Z,30.53
2019-04-05T02:11:23.250Z,31.03
2019-04-05T02:16:30.599Z,30.66
2019-04-05T02:21:37.875Z,31.19
2019-04-05T02:26:45.141Z,30.67
2019-04-05T02:31:52.579Z,30.88
2019-04-05T02:36:59.586Z,30.64
2019-04-05T02:42:06.798Z,30.49
2019-04-05T02:47:14.139Z,33.14
2019-04-05T02:52:21.417Z,34.88
2019-04-05T02:57:28.698Z,32.22
2019-04-05T03:02:35.984Z,32.99
2019-04-05T03:07:43.265Z,32.81
2019-04-05T03:12:50.485Z,30.62
2019-04-05T03:17:57.902Z,32.99
2019-04-05T03:23:05.111Z,32.08
2019-04-05T03:28:12.400Z,33.53
2019-04-05T03:33:19.452Z,33.00
2019-04-05T03:38:26.750Z,33.99
2019-04-05T03:43:33.987Z,34.89
2019-04-05T03:48:41.292Z,34.46
2019-04-05T03:53:48.483Z,33.40
2019-04-05T03:58:55.773Z,32.31
2019-04-05T04:04:03.085Z,32.29
2019-04-05T04:09:10.447Z,33.07
2019-04-05T04:14:17.679Z,32.62
2019-04-05T04:19:25.047Z,34.79
2019-04-05T04:24:32.255Z,34.76
2019-04-05T04:29:39.594Z,33.82
2019-04-05T04:34:46.874Z,31.19
2019-04-05T04:39:54.178Z,31.95
2019-04-05T04:45:11.929Z,33.54
2019-04-05T04:50:08.241Z,33.06
2019-04-05T04:55:15.426Z,33.21
2019-04-05T05:00:22.758Z,33.80
2019-04-05T05:05:29.991Z,33.34
2019-04-05T05:10:37.390Z,36.02
2019-04-05T05:15:44.661Z,35.71
2019-04-05T05:20:51.909Z,32.11
2019-04-05T05:25:59.111Z,36.00
2019-04-05T05:31:06.393Z,35.28
2019-04-05T05:36:13.683Z,33.47
2019-04-05T05:41:21.044Z,34.88
2019-04-05T05:46:28.292Z,32.65
2019-04-05T05:51:35.529Z,33.46
2019-04-05T05:56:42.826Z,32.39
2019-04-05T06:01:50.046Z,33.64
2019-04-05T06:06:57.323Z,33.50
2019-04-05T06:12:04.537Z,33.77
2019-04-05T06:17:11.830Z,34.21
2019-04-05T06:22:19.099Z,32.14
2019-04-05T06:27:26.386Z,34.92
2019-04-05T06:32:33.784Z,33.57
2019-04-05T06:37:41.142Z,33.37
2019-04-05T06:42:48.382Z,34.25
2019-04-05T06:47:55.647Z,34.52
2019-04-05T06:53:02.897Z,34.34
2019-04-05T06:58:10.625Z,34.35
2019-04-05T07:03:17.037Z,35.11
2019-04-05T07:08:24.375Z,35.16
2019-04-05T07:13:31.596Z,34.10
2019-04-05T07:18:38.815Z,30.67
2019-04-05T07:23:46.124Z,25.51
2019-04-05T07:28:53.392Z,29.98
2019-04-05T07:34:00.622Z,29.00
2019-04-05T07:39:07.856Z,25.28
2019-04-05T07:44:15.113Z,23.17
2019-04-05T07:49:22.417Z,21.88
2019-04-05T07:54:29.704Z,20.86
2019-04-05T07:59:36.936Z,18.17
2019-04-05T08:04:44.267Z,17.10
2019-04-05T08:09:51.532Z,14.46
2019-04-05T08:14:58.842Z,13.35
2019-04-05T08:20:06.047Z,11.80
2019-04-05T08:25:13.368Z,13.22
2019-04-05T08:30:20.626Z,12.40
2019-04-05T08:35:27.805Z,13.35
2019-04-05T08:40:35.037Z,12.07
2019-04-05T08:45:42.315Z,10.77
2019-04-05T08:50:49.620Z,11.21
2019-04-05T08:55:56.928Z,11.21
2019-04-05T09:01:04.196Z,9.67
2019-04-05T09:06:11.433Z,9.18
2019-04-05T09:11:18.774Z,11.16
2019-04-05T09:16:26.080Z,9.10
2019-04-05T09:21:33.399Z,9.15
2019-04-05T09:26:40.619Z,9.58
2019-04-05T09:31:47.967Z,9.98
2019-04-05T09:36:55.231Z,11.85
2019-04-05T09:42:02.536Z,13.57
2019-04-05T09:47:09.880Z,14.71
2019-04-05T09:52:17.129Z,15.34
2019-04-05T09:57:24.425Z,15.72
2019-04-05T10:02:32.030Z,16.03
2019-04-05T10:07:53.829Z,15.03
2019-04-05T10:12:46.034Z,14.56
2019-04-05T10:17:53.315Z,16.24
2019-04-05T10:23:00.555Z,16.81
2019-04-05T10:28:07.881Z,16.65
2019-04-05T10:33:15.148Z,17.63
2019-04-05T10:38:22.387Z,18.88
2019-04-05T10:43:29.658Z,16.72
2019-04-05T10:48:36.955Z,17.76
2019-04-05T10:53:44.188Z,16.06
2019-04-05T10:58:51.461Z,16.23
2019-04-05T11:03:58.771Z,15.70
2019-04-05T11:09:05.993Z,16.98
2019-04-05T11:14:14.199Z,14.10
2019-04-05T11:19:20.077Z,14.71
2019-04-05T11:24:27.488Z,13.50
2019-04-05T11:29:34.815Z,15.03
2019-04-05T11:34:42.142Z,19.14
2019-04-05T11:39:49.591Z,15.98
2019-04-05T11:44:56.701Z,17.02
2019-04-05T11:50:04.017Z,15.77
2019-04-05T11:55:11.290Z,16.57
2019-04-05T12:00:18.559Z,14.96
2019-04-05T12:05:27.149Z,15.10
2019-04-05T12:10:32.715Z,14.16
2019-04-05T12:15:40.000Z,14.15
2019-04-05T12:20:52.241Z,15.22
2019-04-05T12:25:54.780Z,12.24
2019-04-05T12:31:01.201Z,12.86
2019-04-05T12:36:08.472Z,12.96
2019-04-05T12:41:18.134Z,14.28
2019-04-05T12:46:22.550Z,14.30
2019-04-05T12:51:29.917Z,16.08
2019-04-05T12:56:37.155Z,15.07
2019-04-05T13:01:45.628Z,15.53
2019-04-05T13:06:52.942Z,15.32
2019-04-05T13:11:58.098Z,12.84
2019-04-05T13:17:05.427Z,14.88
2019-04-05T13:22:12.781Z,14.30
2019-04-05T13:27:20.134Z,16.28
2019-04-05T13:32:27.398Z,14.96
2019-04-05T13:37:34.769Z,13.12
2019-04-05T13:42:42.046Z,12.82
2019-04-05T13:47:49.339Z,12.59
2019-04-05T13:52:56.684Z,13.45
2019-04-05T13:58:04.049Z,16.01
2019-04-05T14:03:11.296Z,16.90
2019-04-05T14:08:18.598Z,14.34
2019-04-05T14:13:25.916Z,16.49
2019-04-05T14:18:33.244Z,14.79
2019-04-05T14:23:40.564Z,16.59
2019-04-05T14:28:47.844Z,18.34
2019-04-05T14:33:55.119Z,16.87
2019-04-05T14:39:02.320Z,19.26
2019-04-05T14:44:09.745Z,18.36
2019-04-05T14:49:17.114Z,20.01
2019-04-05T14:54:24.353Z,17.85
2019-04-05T14:59:32.846Z,18.69
2019-04-05T15:04:38.538Z,18.93
2019-04-05T15:09:45.883Z,17.75
2019-04-05T15:14:53.174Z,20.43
2019-04-05T15:20:00.438Z,21.99
2019-04-05T15:25:07.919Z,22.68
2019-04-05T15:30:15.302Z,22.00
2019-04-05T15:35:22.546Z,21.11
2019-04-05T15:40:30.988Z,23.34
2019-04-05T15:45:37.187Z,20.87
2019-04-05T15:50:44.524Z,25.67
2019-04-05T15:55:51.863Z,26.85
2019-04-05T16:00:59.202Z,30.78
2019-04-05T16:06:06.496Z,28.45
2019-04-05T16:11:13.747Z,30.06
2019-04-05T16:16:21.083Z,33.04
2019-04-05T16:21:28.465Z,58.64
2019-04-05T16:26:35.737Z,32.25
2019-04-05T16:31:43.066Z,32.65
2019-04-05T16:36:50.558Z,33.66
2019-04-05T16:41:57.861Z,38.20
2019-04-05T16:47:05.185Z,41.20
2019-04-05T16:52:12.844Z,40.89
2019-04-05T16:57:20.219Z,35.41
2019-04-05T17:02:27.656Z,37.70
2019-04-05T17:07:35.000Z,37.10
2019-04-05T17:12:42.392Z,43.29
2019-04-05T17:17:49.722Z,45.37
2019-04-05T17:22:58.337Z,45.07
2019-04-05T17:28:03.966Z,39.67
2019-04-05T17:33:11.284Z,42.72
2019-04-05T17:38:18.780Z,39.46
2019-04-05T17:43:26.296Z,36.47
2019-04-05T17:48:33.721Z,31.75
2019-04-05T17:53:40.957Z,32.88
2019-04-05T17:58:48.234Z,31.41
2019-04-05T18:03:55.533Z,23.63
2019-04-05T18:09:03.008Z,28.63
2019-04-05T18:14:10.256Z,27.18
2019-04-05T18:19:17.614Z,26.99
2019-04-05T18:24:24.870Z,23.97
2019-04-05T18:29:32.214Z,23.19
2019-04-05T18:34:39.481Z,27.58
2019-04-05T18:39:47.135Z,25.48
2019-04-05T18:44:54.753Z,24.06
2019-04-05T18:50:02.920Z,27.76
2019-04-05T18:55:08.923Z,24.43
2019-04-05T19:00:16.334Z,27.56
2019-04-05T19:05:23.795Z,26.82
2019-04-05T19:10:36.803Z,24.33
2019-04-05T19:15:38.013Z,25.99
2019-04-05T19:20:50.991Z,24.86
2019-04-05T19:25:54.044Z,24.37
2019-04-05T19:51:22.070Z,26.01
2019-04-05T19:56:29.701Z,27.76
2019-04-05T20:01:37.083Z,27.49
2019-04-05T20:06:44.519Z,24.74
2019-04-05T20:11:52.507Z,27.33
2019-04-05T20:16:59.806Z,27.70
2019-04-05T20:22:07.247Z,24.86
2019-04-05T20:27:14.975Z,26.68
2019-04-05T20:32:22.250Z,27.49
2019-04-05T20:37:29.651Z,27.47
2019-04-05T20:42:37.017Z,26.85
2019-04-05T20:47:44.397Z,26.58
2019-04-05T20:52:51.708Z,25.55
2019-04-05T20:57:59.128Z,26.07
2019-04-05T21:03:06.407Z,27.45
2019-04-05T21:08:13.826Z,27.91
2019-04-05T21:13:21.765Z,24.70
2019-04-05T21:18:28.995Z,26.22
2019-04-05T21:23:37.110Z,27.76
2019-04-05T21:28:44.407Z,27.38
2019-04-05T21:33:51.743Z,29.08
2019-04-05T21:38:59.334Z,29.54
2019-04-05T21:44:06.674Z,27.96
2019-04-05T21:49:14.153Z,25.95
2019-04-05T21:54:21.447Z,29.09
2019-04-05T21:59:28.847Z,29.76
2019-04-05T22:04:36.261Z,29.12
2019-04-05T22:09:43.558Z,27.21
2019-04-05T22:14:50.890Z,29.40
2019-04-05T22:19:58.639Z,26.11
2019-04-05T22:25:06.191Z,28.30
2019-04-05T22:30:13.592Z,25.06
2019-04-05T22:35:21.003Z,29.72
2019-04-05T22:40:28.417Z,27.09
2019-04-05T22:45:35.758Z,28.31
2019-04-05T22:50:43.023Z,26.77
2019-04-05T22:55:50.357Z,27.60
2019-04-05T23:00:57.615Z,28.93
2019-04-05T23:06:04.919Z,29.37
2019-04-05T23:11:12.188Z,28.41
2019-04-05T23:16:19.537Z,27.07
2019-04-05T23:21:26.830Z,27.16
2019-04-05T23:26:34.065Z,28.85
2019-04-05T23:31:41.384Z,27.84
2019-04-05T23:36:48.595Z,27.28
2019-04-05T23:41:55.893Z,28.05
2019-04-05T23:47:03.186Z,30.24
2019-04-05T23:52:10.539Z,25.26
2019-04-05T23:57:19.417Z,28.58
